Time;durP1;ratioP1;P1;durP2;ratioP2;P2;SDS_P1;SDS_P2;PMS_P1;PMS_P2;Temp;Humidity;BMP_temperature;BMP_pressure;BME280_temperature;BME280_humidity;BME280_pressure;Samples;Min_cycle;Max_cycle;Signal;HPM_P1;HPM_P2
2023/05/23 00:01:15;;;;;;;0.00;0.00;;;;;;;;;;5075862;28;20039;-89
2023/05/23 00:03:44;;;;;;;0.00;0.00;;;;;;;;;;5081072;28;20435;-88
2023/05/23 00:06:09;;;;;;;0.00;0.00;;;;;;;;;;5081765;28;20032;-90
2023/05/23 00:08:46;;;;;;;0.00;0.00;;;;;;;;;;5081749;28;20024;-91
2023/05/23 00:11:25;;;;;;;0.00;0.00;;;;;;;;;;5080362;28;20053;-86
2023/05/23 00:14:18;;;;;;;0.10;0.10;;;;;;;;;;5084556;28;20313;-92
2023/05/23 00:16:48;;;;;;;0.00;0.00;;;;;;;;;;5077594;28;20123;-90
2023/05/23 00:19:18;;;;;;;0.00;0.00;;;;;;;;;;5079231;28;20103;-90
2023/05/23 00:21:49;;;;;;;0.00;0.00;;;;;;;;;;5080777;28;20016;-88
2023/05/23 00:24:20;;;;;;;0.00;0.00;;;;;;;;;;5079518;28;20051;-89
2023/05/23 00:26:46;;;;;;;0.55;0.38;;;;;;;;;;5085201;28;20038;-87
2023/05/23 00:29:15;;;;;;;0.00;0.00;;;;;;;;;;5083279;28;20455;-88
2023/05/23 00:31:58;;;;;;;0.20;0.20;;;;;;;;;;5081066;28;20116;-89
2023/05/23 00:34:26;;;;;;;0.00;0.00;;;;;;;;;;5083151;28;20063;-88
2023/05/23 00:36:54;;;;;;;0.00;0.00;;;;;;;;;;5075771;28;20462;-88
2023/05/23 00:39:22;;;;;;;0.00;0.00;;;;;;;;;;5084064;28;20030;-89
2023/05/23 00:41:49;;;;;;;0.00;0.00;;;;;;;;;;5080176;28;20055;-89
2023/05/23 00:44:15;;;;;;;0.10;0.10;;;;;;;;;;5081904;28;20036;-87
2023/05/23 00:46:44;;;;;;;0.25;0.22;;;;;;;;;;5080437;28;20502;-90
2023/05/23 00:49:20;;;;;;;0.00;0.00;;;;;;;;;;5078507;28;20512;-88
2023/05/23 00:51:48;;;;;;;0.10;0.10;;;;;;;;;;5079401;28;20038;-90
2023/05/23 00:54:17;;;;;;;0.00;0.00;;;;;;;;;;5082112;28;20083;-88
2023/05/23 00:56:43;;;;;;;0.05;0.05;;;;;;;;;;5081724;28;20021;-88
2023/05/23 04:07:45;;;;;;;0.00;0.00;;;;;;;;;;5076969;28;20032;-90
2023/05/23 04:10:27;;;;;;;0.00;0.00;;;;;;;;;;5059677;28;20028;-91
2023/05/23 04:13:12;;;;;;;;;;;;;;;;;;;;;
2023/05/23 04:15:39;;;;;;;0.00;0.00;;;;;;;;;;5083376;28;20027;-90
2023/05/23 04:18:34;;;;;;;0.00;0.00;;;;;;;;;;5063408;28;20365;-89
2023/05/23 04:21:11;;;;;;;0.00;0.00;;;;;;;;;;5057137;28;20036;-91
2023/05/23 04:23:44;;;;;;;0.00;0.00;;;;;;;;;;5076630;28;20078;-87
2023/05/23 04:26:18;;;;;;;0.00;0.00;;;;;;;;;;5053138;28;20086;-87
2023/05/23 04:28:47;;;;;;;0.00;0.00;;;;;;;;;;5047984;28;20349;-87
2023/05/23 04:31:13;;;;;;;0.10;0.10;;;;;;;;;;5085606;28;20024;-88
2023/05/23 04:33:39;;;;;;;0.00;0.00;;;;;;;;;;5061396;28;20124;-88
2023/05/23 04:36:32;;;;;;;0.25;0.25;;;;;;;;;;5057729;28;20064;-90
2023/05/23 04:38:58;;;;;;;0.00;0.00;;;;;;;;;;5051992;28;20090;-89
2023/05/23 04:41:23;;;;;;;0.00;0.00;;;;;;;;;;5056400;28;20033;-87
2023/05/23 04:43:53;;;;;;;0.00;0.00;;;;;;;;;;5082542;28;20032;-85
2023/05/23 04:46:22;;;;;;;0.05;0.05;;;;;;;;;;5066467;28;20024;-82
2023/05/23 04:48:47;;;;;;;0.00;0.00;;;;;;;;;;5079200;28;20060;-86
2023/05/23 04:51:13;;;;;;;0.00;0.00;;;;;;;;;;5070233;28;20027;-84
2023/05/23 04:53:43;;;;;;;0.00;0.00;;;;;;;;;;5084282;28;20020;-87
2023/05/23 04:56:08;;;;;;;0.00;0.00;;;;;;;;;;5062000;28;20064;-87
2023/05/23 04:58:34;;;;;;;0.17;0.17;;;;;;;;;;5089363;28;20488;-86
2023/05/23 05:01:00;;;;;;;0.00;0.00;;;;;;;;;;5066336;28;20062;-83
2023/05/23 05:03:25;;;;;;;1.65;0.43;;;;;;;;;;5061983;28;20023;-84
2023/05/23 05:05:52;;;;;;;0.00;0.00;;;;;;;;;;5084469;28;20447;-85
2023/05/23 05:08:18;;;;;;;0.00;0.00;;;;;;;;;;5067744;28;20031;-85
2023/05/23 05:10:44;;;;;;;0.03;0.03;;;;;;;;;;5082856;28;20034;-85
2023/05/23 05:13:09;;;;;;;0.47;0.47;;;;;;;;;;5059802;28;20028;-84
2023/05/23 05:15:35;;;;;;;0.10;0.10;;;;;;;;;;5085073;28;20024;-85
2023/05/23 05:18:00;;;;;;;0.00;0.00;;;;;;;;;;5066357;28;20434;-86
2023/05/23 05:20:26;;;;;;;0.00;0.00;;;;;;;;;;5068293;28;20078;-84
2023/05/23 05:23:00;;;;;;;0.00;0.00;;;;;;;;;;5066295;28;20028;-86
2023/05/23 05:25:30;;;;;;;0.20;0.20;;;;;;;;;;5065451;28;20103;-85
2023/05/23 05:27:56;;;;;;;0.00;0.00;;;;;;;;;;5090917;28;20024;-85
2023/05/23 05:30:21;;;;;;;0.17;0.17;;;;;;;;;;5056683;28;20094;-85
2023/05/23 05:32:47;;;;;;;0.00;0.00;;;;;;;;;;5092709;28;20714;-84
2023/05/23 05:35:15;;;;;;;0.20;0.20;;;;;;;;;;5083360;28;20020;-85
2023/05/23 05:37:41;;;;;;;0.40;0.40;;;;;;;;;;5082546;28;20078;-87
2023/05/23 05:40:07;;;;;;;0.00;0.00;;;;;;;;;;5063300;28;20538;-86
2023/05/23 05:42:33;;;;;;;0.00;0.00;;;;;;;;;;5064158;28;20082;-84
2023/05/23 05:44:58;;;;;;;0.00;0.00;;;;;;;;;;5087575;28;20028;-84
2023/05/23 05:47:25;;;;;;;0.00;0.00;;;;;;;;;;5092757;28;20063;-85
2023/05/23 05:49:50;;;;;;;0.00;0.00;;;;;;;;;;5081212;28;20024;-85
2023/05/23 05:52:16;;;;;;;0.00;0.00;;;;;;;;;;5085506;28;20037;-86
2023/05/23 05:54:41;;;;;;;0.00;0.00;;;;;;;;;;5084071;28;20021;-84
2023/05/23 05:57:06;;;;;;;0.00;0.00;;;;;;;;;;5090734;28;20392;-84
2023/05/23 05:59:32;;;;;;;0.20;0.20;;;;;;;;;;5080466;28;20025;-84
2023/05/23 06:01:57;;;;;;;0.00;0.00;;;;;;;;;;5081544;28;20376;-84
2023/05/23 06:04:23;;;;;;;0.00;0.00;;;;;;;;;;5078663;28;20028;-83
2023/05/23 06:06:48;;;;;;;0.20;0.20;;;;;;;;;;5080182;28;20072;-83
2023/05/23 06:09:14;;;;;;;0.00;0.00;;;;;;;;;;5057097;28;20025;-85
2023/05/23 06:11:39;;;;;;;0.00;0.00;;;;;;;;;;5082109;28;20417;-85
2023/05/23 06:14:06;;;;;;;0.00;0.00;;;;;;;;;;5078518;28;20031;-85
2023/05/23 06:16:31;;;;;;;0.00;0.00;;;;;;;;;;5057243;28;20107;-86
2023/05/23 06:18:57;;;;;;;0.00;0.00;;;;;;;;;;5082207;28;20032;-87
2023/05/23 06:21:22;;;;;;;0.00;0.00;;;;;;;;;;5092519;28;20029;-85
2023/05/23 06:23:47;;;;;;;1.08;0.55;;;;;;;;;;5084007;28;20035;-82
2023/05/23 06:26:13;;;;;;;0.00;0.00;;;;;;;;;;5080345;28;20039;-83
2023/05/23 06:28:38;;;;;;;0.00;0.00;;;;;;;;;;5086983;28;20052;-84
2023/05/23 06:31:04;;;;;;;0.00;0.00;;;;;;;;;;5082701;28;20051;-85
2023/05/23 06:33:30;;;;;;;0.00;0.00;;;;;;;;;;5081148;28;20020;-86
2023/05/23 06:35:59;;;;;;;0.00;0.00;;;;;;;;;;5087734;28;20438;-84
2023/05/23 06:38:26;;;;;;;0.03;0.03;;;;;;;;;;5059601;28;20078;-82
2023/05/23 06:40:52;;;;;;;0.00;0.00;;;;;;;;;;5062032;28;20033;-83
2023/05/23 06:43:17;;;;;;;0.00;0.00;;;;;;;;;;5076551;28;20027;-83
2023/05/23 06:45:46;;;;;;;0.00;0.00;;;;;;;;;;5078976;28;20024;-85
2023/05/23 06:48:11;;;;;;;0.00;0.00;;;;;;;;;;5083208;28;20361;-86
2023/05/23 06:50:37;;;;;;;0.00;0.00;;;;;;;;;;5060724;28;20032;-85
2023/05/23 06:53:02;;;;;;;0.00;0.00;;;;;;;;;;5082692;28;20024;-86
2023/05/23 06:55:29;;;;;;;0.20;0.20;;;;;;;;;;5084271;28;20027;-87
2023/05/23 06:57:55;;;;;;;0.00;0.00;;;;;;;;;;5078105;28;21562;-90
2023/05/23 07:00:21;;;;;;;0.00;0.00;;;;;;;;;;5064123;28;20540;-89
2023/05/23 07:02:49;;;;;;;0.00;0.00;;;;;;;;;;5080678;28;20103;-86
2023/05/23 07:05:16;;;;;;;0.00;0.00;;;;;;;;;;5096176;28;20073;-89
2023/05/23 07:07:46;;;;;;;0.00;0.00;;;;;;;;;;5079264;28;20389;-88
2023/05/23 07:10:11;;;;;;;0.28;0.28;;;;;;;;;;5096734;28;20506;-88
2023/05/23 07:12:37;;;;;;;0.00;0.00;;;;;;;;;;5054573;28;20032;-86
2023/05/23 07:15:03;;;;;;;0.00;0.00;;;;;;;;;;5075222;28;20027;-85
2023/05/23 07:17:29;;;;;;;0.17;0.17;;;;;;;;;;5078487;28;20047;-85
2023/05/23 07:19:54;;;;;;;0.00;0.00;;;;;;;;;;5075670;28;20138;-84
2023/05/23 07:22:20;;;;;;;0.00;0.00;;;;;;;;;;5075995;28;20021;-85
2023/05/23 07:24:45;;;;;;;0.00;0.00;;;;;;;;;;5053453;28;20052;-85
2023/05/23 07:27:11;;;;;;;0.10;0.10;;;;;;;;;;5073623;28;20032;-87
2023/05/23 07:29:36;;;;;;;0.03;0.03;;;;;;;;;;5073228;28;20048;-86
2023/05/23 07:32:04;;;;;;;0.00;0.00;;;;;;;;;;5075850;28;20040;-84
2023/05/23 07:34:32;;;;;;;0.00;0.00;;;;;;;;;;5082262;28;20103;-87
2023/05/23 07:36:58;;;;;;;0.00;0.00;;;;;;;;;;5063165;28;20031;-83
2023/05/23 07:39:24;;;;;;;0.00;0.00;;;;;;;;;;5083700;28;20028;-87
2023/05/23 07:41:51;;;;;;;0.00;0.00;;;;;;;;;;5085201;28;20488;-87
2023/05/23 07:44:17;;;;;;;0.00;0.00;;;;;;;;;;5058650;28;20025;-85
2023/05/23 07:46:43;;;;;;;0.03;0.03;;;;;;;;;;5073759;28;20029;-89
2023/05/23 07:49:08;;;;;;;0.00;0.00;;;;;;;;;;5056095;28;20024;-87
2023/05/23 07:51:34;;;;;;;0.10;0.10;;;;;;;;;;5088158;28;20028;-89
2023/05/23 07:54:02;;;;;;;0.13;0.13;;;;;;;;;;5059446;28;20032;-89
2023/05/23 07:56:27;;;;;;;0.05;0.05;;;;;;;;;;5057769;28;20028;-86
2023/05/23 07:58:52;;;;;;;0.20;0.20;;;;;;;;;;5061704;28;20032;-88
2023/05/23 08:01:19;;;;;;;0.00;0.00;;;;;;;;;;5077719;28;20146;-86
2023/05/23 08:03:44;;;;;;;0.00;0.00;;;;;;;;;;5083522;28;20376;-88
2023/05/23 08:06:10;;;;;;;0.30;0.30;;;;;;;;;;5077656;28;20044;-84
2023/05/23 08:08:36;;;;;;;0.00;0.00;;;;;;;;;;5079023;28;20032;-85
2023/05/23 08:11:02;;;;;;;0.00;0.00;;;;;;;;;;5055644;28;20738;-83
2023/05/23 08:13:27;;;;;;;0.40;0.38;;;;;;;;;;5077272;28;20033;-84
2023/05/23 08:15:53;;;;;;;0.00;0.00;;;;;;;;;;5076263;28;20032;-84
2023/05/23 08:18:18;;;;;;;0.10;0.10;;;;;;;;;;5061999;28;20021;-85
2023/05/23 08:20:44;;;;;;;1.98;0.45;;;;;;;;;;5079160;28;20484;-84
2023/05/23 08:23:11;;;;;;;0.13;0.13;;;;;;;;;;5055330;28;20102;-88
2023/05/23 08:25:37;;;;;;;0.00;0.00;;;;;;;;;;5058782;28;20469;-83
2023/05/23 08:28:02;;;;;;;0.00;0.00;;;;;;;;;;5077937;28;20032;-87
2023/05/23 08:30:28;;;;;;;0.22;0.22;;;;;;;;;;5077791;28;20028;-89
2023/05/23 08:32:55;;;;;;;0.00;0.00;;;;;;;;;;5059287;28;20111;-89
2023/05/23 08:35:21;;;;;;;0.00;0.00;;;;;;;;;;5081223;28;20016;-85
2023/05/23 08:37:47;;;;;;;0.00;0.00;;;;;;;;;;5082208;28;20384;-89
2023/05/23 08:40:20;;;;;;;0.00;0.00;;;;;;;;;;5078342;28;20036;-89
2023/05/23 08:42:49;;;;;;;0.00;0.00;;;;;;;;;;5077688;28;20104;-88
2023/05/23 08:45:16;;;;;;;0.00;0.00;;;;;;;;;;5059317;28;20122;-84
2023/05/23 08:48:28;;;;;;;0.15;0.15;;;;;;;;;;5057973;28;20555;-88
2023/05/23 08:51:06;;;;;;;0.00;0.00;;;;;;;;;;5091248;28;20058;-87
2023/05/23 08:53:39;;;;;;;0.00;0.00;;;;;;;;;;5057834;28;20396;-89
2023/05/23 08:56:51;;;;;;;0.00;0.00;;;;;;;;;;5064420;28;20067;-92
2023/05/23 08:59:20;;;;;;;0.00;0.00;;;;;;;;;;5061403;28;20115;-87
2023/05/23 09:05:01;;;;;;;0.00;0.00;;;;;;;;;;5032731;28;19913;-86
2023/05/23 09:07:44;;;;;;;0.00;0.00;;;;;;;;;;5010391;28;20057;-88
2023/05/23 09:10:15;;;;;;;0.00;0.00;;;;;;;;;;5010859;28;20040;-89
2023/05/23 09:12:57;;;;;;;0.00;0.00;;;;;;;;;;5010394;28;20435;-85
2023/05/23 09:16:15;;;;;;;0.00;0.00;;;;;;;;;;5022204;28;20422;-88
2023/05/23 09:19:08;;;;;;;0.00;0.00;;;;;;;;;;5006507;28;20033;-88
2023/05/23 09:22:14;;;;;;;0.00;0.00;;;;;;;;;;5007242;28;20136;-87
2023/05/23 09:25:01;;;;;;;0.00;0.00;;;;;;;;;;5027600;28;20037;-87
2023/05/23 09:27:43;;;;;;;0.43;0.20;;;;;;;;;;5026344;28;20076;-89
2023/05/23 09:30:13;;;;;;;0.00;0.00;;;;;;;;;;5011492;28;20497;-86
2023/05/23 09:32:41;;;;;;;0.00;0.00;;;;;;;;;;5028537;28;20439;-84
2023/05/23 09:35:42;;;;;;;0.00;0.00;;;;;;;;;;5013955;28;20370;-86
2023/05/23 09:38:07;;;;;;;0.00;0.00;;;;;;;;;;5017165;28;20025;-87
2023/05/23 09:40:57;;;;;;;0.00;0.00;;;;;;;;;;5052702;28;20028;-86
2023/05/23 09:44:04;;;;;;;0.00;0.00;;;;;;;;;;5038940;28;20086;-86
2023/05/23 09:46:38;;;;;;;0.00;0.00;;;;;;;;;;5037450;28;20040;-84
2023/05/23 09:49:50;;;;;;;;;;;;;;;;;;;;;
2023/05/23 09:52:41;;;;;;;0.00;0.00;;;;;;;;;;5038437;28;20066;-90
2023/05/23 09:55:45;;;;;;;0.00;0.00;;;;;;;;;;5020486;28;20037;-85
2023/05/23 09:58:39;;;;;;;0.10;0.10;;;;;;;;;;5025526;28;20552;-86
2023/05/23 10:01:22;;;;;;;0.10;0.10;;;;;;;;;;5003795;28;20048;-85
2023/05/23 10:04:22;;;;;;;0.00;0.00;;;;;;;;;;5006043;28;20030;-86
2023/05/23 10:07:37;;;;;;;0.00;0.00;;;;;;;;;;5003862;28;20512;-83
2023/05/23 10:10:21;;;;;;;0.00;0.00;;;;;;;;;;4989338;28;20042;-86
2023/05/23 10:13:09;;;;;;;0.08;0.00;;;;;;;;;;5001098;28;20025;-87
2023/05/23 10:15:47;;;;;;;0.03;0.03;;;;;;;;;;5020774;28;20041;-84
2023/05/23 10:18:31;;;;;;;0.00;0.00;;;;;;;;;;5036428;28;20041;-88
2023/05/23 10:21:08;;;;;;;0.00;0.00;;;;;;;;;;5014713;28;20041;-85
2023/05/23 10:23:38;;;;;;;0.00;0.00;;;;;;;;;;5022377;28;20037;-83
2023/05/23 10:26:28;;;;;;;0.00;0.00;;;;;;;;;;5029535;28;20443;-83
2023/05/23 10:32:41;;;;;;;;;;;;;;;;;;;;;
2023/05/23 10:39:00;;;;;;;0.00;0.00;;;;;;;;;;5058891;28;20456;-83
2023/05/23 11:00:03;;;;;;;0.25;0.25;;;;;;;;;;4892736;29;20496;-84
2023/05/23 11:03:12;;;;;;;0.00;0.00;;;;;;;;;;4813875;29;20493;-84
2023/05/23 11:06:14;;;;;;;0.00;0.00;;;;;;;;;;4816647;29;20590;-84
2023/05/23 11:09:25;;;;;;;0.15;0.15;;;;;;;;;;4852502;29;20065;-85
2023/05/23 11:16:11;;;;;;;;;;;;;;;;;;;;;
2023/05/23 11:26:26;;;;;;;;;;;;;;;;;;;;;
2023/05/23 11:29:12;;;;;;;;;;;;;;;;;;4939729;28;20039;-86
2023/05/23 11:31:39;;;;;;;0.00;0.00;;;;;;;;;;4961025;28;19956;-85
2023/05/23 11:34:05;;;;;;;0.13;0.13;;;;;;;;;;5032718;28;20044;-82
2023/05/23 11:36:34;;;;;;;0.00;0.00;;;;;;;;;;5053739;28;20491;-86
2023/05/23 11:39:03;;;;;;;0.00;0.00;;;;;;;;;;5098771;28;20028;-86
2023/05/23 11:41:29;;;;;;;0.00;0.00;;;;;;;;;;5065325;28;20024;-86
2023/05/23 11:43:55;;;;;;;0.00;0.00;;;;;;;;;;5067763;28;20028;-87
2023/05/23 11:46:20;;;;;;;0.00;0.00;;;;;;;;;;5069372;28;20388;-84
2023/05/23 11:48:48;;;;;;;0.00;0.00;;;;;;;;;;5068352;28;20456;-87
2023/05/23 11:51:14;;;;;;;0.00;0.00;;;;;;;;;;5064678;28;20035;-89
2023/05/23 11:53:40;;;;;;;0.10;0.10;;;;;;;;;;5060415;28;20104;-87
2023/05/23 11:56:05;;;;;;;0.30;0.30;;;;;;;;;;5055342;28;20440;-82
2023/05/23 11:58:36;;;;;;;0.15;0.10;;;;;;;;;;5056512;28;20428;-85
2023/05/23 12:01:07;;;;;;;0.00;0.00;;;;;;;;;;5053105;28;20470;-87
2023/05/23 12:03:52;;;;;;;0.00;0.00;;;;;;;;;;5060835;28;20031;-84
2023/05/23 12:06:18;;;;;;;0.10;0.10;;;;;;;;;;5040273;28;20380;-86
2023/05/23 12:08:44;;;;;;;0.15;0.15;;;;;;;;;;5050771;28;20051;-87
2023/05/23 12:11:10;;;;;;;0.10;0.10;;;;;;;;;;5077894;28;20051;-83
2023/05/23 12:13:36;;;;;;;0.00;0.00;;;;;;;;;;5078848;28;20051;-88
2023/05/23 12:16:03;;;;;;;0.00;0.00;;;;;;;;;;5075216;28;20483;-84
2023/05/23 12:18:30;;;;;;;0.10;0.10;;;;;;;;;;5080702;28;20069;-88
2023/05/23 12:21:01;;;;;;;0.10;0.10;;;;;;;;;;5077999;28;20052;-86
2023/05/23 12:23:28;;;;;;;0.10;0.10;;;;;;;;;;5081308;28;20819;-85
2023/05/23 12:25:55;;;;;;;0.10;0.10;;;;;;;;;;5083769;28;20032;-86
2023/05/23 12:28:41;;;;;;;0.10;0.10;;;;;;;;;;5067737;28;20090;-87
2023/05/23 12:31:20;;;;;;;0.13;0.13;;;;;;;;;;5072563;28;20028;-83
2023/05/23 12:33:47;;;;;;;0.10;0.10;;;;;;;;;;5070412;28;20399;-83
2023/05/23 12:36:31;;;;;;;0.10;0.10;;;;;;;;;;5076720;28;20438;-83
2023/05/23 12:39:03;;;;;;;0.10;0.10;;;;;;;;;;5072330;28;20025;-83
2023/05/23 12:41:29;;;;;;;0.10;0.10;;;;;;;;;;5062020;28;20042;-86
2023/05/23 12:43:55;;;;;;;0.00;0.00;;;;;;;;;;5073856;28;20028;-85
2023/05/23 12:46:25;;;;;;;0.10;0.10;;;;;;;;;;5075599;28;20036;-86
2023/05/23 12:48:52;;;;;;;0.10;0.10;;;;;;;;;;5079961;28;20027;-85
2023/05/23 12:51:17;;;;;;;0.00;0.00;;;;;;;;;;5080286;28;20032;-86
2023/05/23 12:53:43;;;;;;;0.00;0.00;;;;;;;;;;5076744;28;20488;-83
2023/05/23 12:56:09;;;;;;;0.10;0.10;;;;;;;;;;5076219;28;20059;-86
2023/05/23 12:58:34;;;;;;;0.10;0.10;;;;;;;;;;5079877;28;20024;-84
2023/05/23 13:01:01;;;;;;;0.00;0.00;;;;;;;;;;5054763;28;20476;-87
2023/05/23 13:03:28;;;;;;;0.10;0.10;;;;;;;;;;5079248;28;20203;-86
2023/05/23 13:05:54;;;;;;;0.03;0.03;;;;;;;;;;5074531;28;20024;-83
2023/05/23 13:08:20;;;;;;;0.10;0.10;;;;;;;;;;5076498;28;20450;-83
2023/05/23 13:10:45;;;;;;;0.47;0.30;;;;;;;;;;5091989;28;20031;-84
2023/05/23 13:13:11;;;;;;;0.10;0.10;;;;;;;;;;5078467;28;20571;-83
2023/05/23 13:15:36;;;;;;;0.08;0.08;;;;;;;;;;5077466;28;20036;-87
2023/05/23 13:18:02;;;;;;;0.00;0.00;;;;;;;;;;5074333;28;20038;-86
2023/05/23 13:20:29;;;;;;;0.30;0.30;;;;;;;;;;5075986;28;20078;-88
2023/05/23 13:22:55;;;;;;;0.22;0.20;;;;;;;;;;5072355;28;20049;-84
2023/05/23 13:25:21;;;;;;;0.20;0.20;;;;;;;;;;5079103;28;20469;-83
2023/05/23 13:27:47;;;;;;;0.00;0.00;;;;;;;;;;5075393;28;20028;-85
2023/05/23 13:30:13;;;;;;;0.10;0.10;;;;;;;;;;5075718;28;20024;-84
2023/05/23 13:32:38;;;;;;;0.00;0.00;;;;;;;;;;5057873;28;20039;-82
2023/05/23 13:35:04;;;;;;;0.10;0.10;;;;;;;;;;5061132;28;20523;-85
2023/05/23 13:37:30;;;;;;;0.20;0.20;;;;;;;;;;5076821;28;20376;-85
2023/05/23 13:39:55;;;;;;;0.00;0.00;;;;;;;;;;5077154;28;20030;-85
2023/05/23 13:42:21;;;;;;;0.05;0.05;;;;;;;;;;5089414;28;20106;-87
2023/05/23 13:44:46;;;;;;;0.15;0.15;;;;;;;;;;5079213;28;20429;-81
2023/05/23 13:47:13;;;;;;;0.10;0.10;;;;;;;;;;5086937;28;20373;-85
2023/05/23 13:49:39;;;;;;;0.00;0.00;;;;;;;;;;5084206;28;20031;-86
2023/05/23 13:52:05;;;;;;;0.00;0.00;;;;;;;;;;5080248;28;20115;-86
2023/05/23 13:54:30;;;;;;;0.00;0.00;;;;;;;;;;5083163;28;20052;-87
2023/05/23 13:56:56;;;;;;;0.00;0.00;;;;;;;;;;5076370;28;20107;-86
2023/05/23 13:59:25;;;;;;;0.00;0.00;;;;;;;;;;5075367;28;20031;-86
2023/05/23 14:01:50;;;;;;;0.30;0.30;;;;;;;;;;5084557;28;20027;-85
2023/05/23 14:04:15;;;;;;;0.00;0.00;;;;;;;;;;5080727;28;20024;-87
2023/05/23 14:06:41;;;;;;;1.23;0.17;;;;;;;;;;5083831;28;20028;-86
2023/05/23 14:09:07;;;;;;;0.10;0.10;;;;;;;;;;5072269;28;20182;-84
2023/05/23 14:11:34;;;;;;;0.03;0.03;;;;;;;;;;5078176;28;20077;-86
2023/05/23 14:13:59;;;;;;;0.08;0.08;;;;;;;;;;5079562;28;20094;-87
2023/05/23 14:16:25;;;;;;;0.00;0.00;;;;;;;;;;5083722;28;20468;-86
2023/05/23 14:18:51;;;;;;;0.13;0.13;;;;;;;;;;5077014;28;20591;-87
2023/05/23 14:21:16;;;;;;;0.00;0.00;;;;;;;;;;5077599;28;20036;-87
2023/05/23 14:23:42;;;;;;;0.20;0.20;;;;;;;;;;5078553;28;20094;-83
2023/05/23 14:26:07;;;;;;;0.00;0.00;;;;;;;;;;5079553;28;20016;-86
2023/05/23 14:28:32;;;;;;;0.00;0.00;;;;;;;;;;5056083;28;20044;-86
2023/05/23 14:30:58;;;;;;;0.10;0.10;;;;;;;;;;5079264;28;20031;-85
2023/05/23 14:33:24;;;;;;;0.13;0.13;;;;;;;;;;5071155;28;20027;-85
2023/05/23 14:35:50;;;;;;;0.00;0.00;;;;;;;;;;5076975;28;20020;-87
2023/05/23 14:38:15;;;;;;;0.10;0.10;;;;;;;;;;5079998;28;20079;-87
2023/05/23 14:40:41;;;;;;;0.00;0.00;;;;;;;;;;5077642;28;20365;-84
2023/05/23 14:43:06;;;;;;;0.28;0.20;;;;;;;;;;5058929;28;20103;-85
2023/05/23 14:45:32;;;;;;;0.00;0.00;;;;;;;;;;5081815;28;20028;-83
2023/05/23 14:47:57;;;;;;;0.20;0.20;;;;;;;;;;5062827;28;20464;-85
2023/05/23 14:50:24;;;;;;;0.05;0.05;;;;;;;;;;5077000;28;20082;-85
2023/05/23 14:52:49;;;;;;;0.17;0.10;;;;;;;;;;5073995;28;20031;-90
2023/05/23 14:55:15;;;;;;;0.43;0.28;;;;;;;;;;5057135;28;20403;-84
2023/05/23 14:57:40;;;;;;;0.10;0.10;;;;;;;;;;5080565;28;20024;-83
2023/05/23 15:00:06;;;;;;;0.15;0.10;;;;;;;;;;5085579;28;20032;-85
2023/05/23 15:02:32;;;;;;;1.98;0.38;;;;;;;;;;5080396;28;20621;-84
2023/05/23 15:04:57;;;;;;;0.00;0.00;;;;;;;;;;5074105;28;20163;-86
2023/05/23 15:07:23;;;;;;;0.00;0.00;;;;;;;;;;5076123;28;20396;-85
2023/05/23 15:09:48;;;;;;;1.35;0.30;;;;;;;;;;5057507;28;20056;-86
2023/05/23 15:12:14;;;;;;;0.00;0.00;;;;;;;;;;5087154;28;20036;-81
2023/05/23 15:14:42;;;;;;;0.00;0.00;;;;;;;;;;5087407;28;20028;-86
2023/05/23 15:17:08;;;;;;;0.00;0.00;;;;;;;;;;5080623;28;20074;-81
2023/05/23 15:19:35;;;;;;;0.10;0.10;;;;;;;;;;5079515;28;20443;-81
2023/05/23 15:22:04;;;;;;;1.27;0.20;;;;;;;;;;5073392;28;20035;-85
2023/05/23 15:24:30;;;;;;;0.00;0.00;;;;;;;;;;5056611;28;20024;-84
2023/05/23 15:26:55;;;;;;;0.10;0.10;;;;;;;;;;5097708;28;20158;-85
2023/05/23 15:29:23;;;;;;;0.00;0.00;;;;;;;;;;5059135;28;20052;-92
2023/05/23 15:31:49;;;;;;;0.00;0.00;;;;;;;;;;5060440;28;20040;-90
2023/05/23 15:34:15;;;;;;;0.00;0.00;;;;;;;;;;5079864;28;20028;-83
2023/05/23 15:36:40;;;;;;;0.00;0.00;;;;;;;;;;5061121;28;20063;-88
2023/05/23 15:39:06;;;;;;;0.00;0.00;;;;;;;;;;5079512;28;20020;-88
2023/05/23 15:41:31;;;;;;;0.00;0.00;;;;;;;;;;5081879;28;20032;-87
2023/05/23 15:43:56;;;;;;;0.00;0.00;;;;;;;;;;5076788;28;20025;-87
2023/05/23 15:46:22;;;;;;;0.00;0.00;;;;;;;;;;5072321;28;20073;-91
2023/05/23 15:48:47;;;;;;;0.20;0.15;;;;;;;;;;5079486;28;20033;-84
2023/05/23 15:51:12;;;;;;;0.08;0.08;;;;;;;;;;5055434;28;20070;-89
2023/05/23 15:53:38;;;;;;;0.00;0.00;;;;;;;;;;5055643;28;20036;-88
2023/05/23 15:56:03;;;;;;;0.00;0.00;;;;;;;;;;5061645;28;20523;-88
2023/05/23 15:58:30;;;;;;;0.00;0.00;;;;;;;;;;5084436;28;20027;-88
2023/05/23 16:00:55;;;;;;;0.00;0.00;;;;;;;;;;5055760;28;20036;-91
2023/05/23 16:03:21;;;;;;;0.10;0.10;;;;;;;;;;5055532;28;20357;-90
2023/05/23 16:05:46;;;;;;;0.00;0.00;;;;;;;;;;5053494;28;20020;-87
2023/05/23 16:08:12;;;;;;;0.03;0.03;;;;;;;;;;5060206;28;20067;-88
2023/05/23 16:10:37;;;;;;;0.00;0.00;;;;;;;;;;5084147;28;20421;-89
2023/05/23 16:13:03;;;;;;;0.00;0.00;;;;;;;;;;5057447;28;20069;-86
2023/05/23 16:15:29;;;;;;;0.00;0.00;;;;;;;;;;5082635;28;20024;-88
2023/05/23 16:18:03;;;;;;;0.00;0.00;;;;;;;;;;5068935;28;20058;-90
2023/05/23 16:24:04;;;;;;;0.00;0.00;;;;;;;;;;5092673;28;20039;-91
2023/05/23 16:26:51;;;;;;;0.17;0.10;;;;;;;;;;5059293;28;20480;-91
2023/05/23 16:29:19;;;;;;;0.00;0.00;;;;;;;;;;5081617;28;20484;-92
2023/05/23 16:31:45;;;;;;;2.00;1.52;;;;;;;;;;5058822;28;20027;-91
2023/05/23 16:34:11;;;;;;;3.97;3.65;;;;;;;;;;5065143;28;20029;-92
2023/05/23 16:36:39;;;;;;;2.40;1.92;;;;;;;;;;5062664;28;20025;-91
2023/05/23 16:39:08;;;;;;;1.50;1.40;;;;;;;;;;5067216;28;20024;-91
2023/05/23 16:41:36;;;;;;;1.20;1.10;;;;;;;;;;5085184;28;20054;-92
2023/05/23 16:44:14;;;;;;;;;;;;;;;;;;;;;
2023/05/23 16:46:51;;;;;;;0.00;0.00;;;;;;;;;;5076385;28;20034;-93
2023/05/23 16:49:17;;;;;;;0.00;0.00;;;;;;;;;;5054858;28;20028;-90
2023/05/23 16:51:55;;;;;;;0.77;0.47;;;;;;;;;;5081757;28;20115;-92
2023/05/23 16:54:21;;;;;;;0.00;0.00;;;;;;;;;;5078615;28;20021;-87
2023/05/23 16:57:22;;;;;;;;;;;;;;;;;;;;;
2023/05/23 16:59:51;;;;;;;0.00;0.00;;;;;;;;;;5074420;28;20027;-90
2023/05/23 17:06:25;;;;;;;0.10;0.10;;;;;;;;;;4962286;28;20442;-90
2023/05/23 17:13:26;;;;;;;0.00;0.00;;;;;;;;;;4918381;29;20047;-92
2023/05/23 17:15:54;;;;;;;0.00;0.00;;;;;;;;;;4927645;28;20039;-88
2023/05/23 17:21:14;;;;;;;0.00;0.00;;;;;;;;;;5022741;28;20072;-89
2023/05/23 17:23:56;;;;;;;0.00;0.00;;;;;;;;;;5013738;28;20100;-88
2023/05/23 17:26:22;;;;;;;0.10;0.10;;;;;;;;;;5028667;28;20028;-89
2023/05/23 17:28:50;;;;;;;0.00;0.00;;;;;;;;;;5044478;28;20120;-90
2023/05/23 17:31:19;;;;;;;0.00;0.00;;;;;;;;;;5047413;28;20131;-87
2023/05/23 17:33:50;;;;;;;0.00;0.00;;;;;;;;;;5040122;28;20041;-89
2023/05/23 17:54:03;;;;;;;0.00;0.00;;;;;;;;;;5050486;28;20163;-92
2023/05/23 18:03:55;;;;;;;;;;;;;;;;;;;;;
2023/05/23 18:06:38;;;;;;;0.00;0.00;;;;;;;;;;4928751;29;20489;-92
2023/05/23 18:09:34;;;;;;;0.00;0.00;;;;;;;;;;4984402;28;20047;-90
2023/05/23 18:12:05;;;;;;;0.00;0.00;;;;;;;;;;4986995;28;20030;-89
2023/05/23 18:15:00;;;;;;;0.00;0.00;;;;;;;;;;4985771;28;20044;-89
2023/05/23 18:18:26;;;;;;;0.00;0.00;;;;;;;;;;4996878;28;20042;-87
2023/05/23 18:20:52;;;;;;;0.00;0.00;;;;;;;;;;5035170;28;20033;-88
2023/05/23 18:23:17;;;;;;;0.10;0.10;;;;;;;;;;5065008;28;20021;-90
2023/05/23 18:26:22;;;;;;;0.00;0.00;;;;;;;;;;5065533;28;20024;-87
2023/05/23 18:28:59;;;;;;;0.10;0.10;;;;;;;;;;5056997;28;20041;-87
2023/05/23 18:31:36;;;;;;;0.00;0.00;;;;;;;;;;5043338;28;20024;-85
2023/05/23 18:34:36;;;;;;;0.03;0.03;;;;;;;;;;5043089;28;20055;-87
2023/05/23 18:37:47;;;;;;;0.00;0.00;;;;;;;;;;5054481;28;20438;-87
2023/05/23 18:40:20;;;;;;;0.00;0.00;;;;;;;;;;5060607;28;20497;-90
2023/05/23 18:43:19;;;;;;;0.00;0.00;;;;;;;;;;5040752;28;20058;-88
2023/05/23 18:45:59;;;;;;;0.00;0.00;;;;;;;;;;5044611;28;20111;-89
2023/05/23 18:48:56;;;;;;;;;;;;;;;;;;;;;
2023/05/23 18:52:35;;;;;;;;;;;;;;;;;;;;;
2023/05/23 18:58:48;;;;;;;0.00;0.00;;;;;;;;;;5064291;28;20036;-88
2023/05/23 19:01:33;;;;;;;0.00;0.00;;;;;;;;;;5038176;28;20033;-87
2023/05/23 19:07:36;;;;;;;0.00;0.00;;;;;;;;;;5048671;28;20040;-88
2023/05/23 19:10:22;;;;;;;0.52;0.30;;;;;;;;;;5094846;28;20047;-86
2023/05/23 19:30:21;;;;;;;0.00;0.00;;;;;;;;;;4969603;28;20367;-87
2023/05/23 19:33:05;;;;;;;0.00;0.00;;;;;;;;;;5016834;28;20489;-88
2023/05/23 19:36:05;;;;;;;0.30;0.10;;;;;;;;;;4987328;28;20072;-88
2023/05/23 19:42:04;;;;;;;;;;;;;;;;;;;;;
2023/05/23 19:47:22;;;;;;;0.00;0.00;;;;;;;;;;5077770;28;20048;-87
2023/05/23 19:49:50;;;;;;;0.00;0.00;;;;;;;;;;5075971;28;20028;-87
2023/05/23 19:52:41;;;;;;;0.00;0.00;;;;;;;;;;5076320;28;20124;-90
2023/05/23 19:55:08;;;;;;;0.00;0.00;;;;;;;;;;5068868;28;20031;-88
2023/05/23 19:57:35;;;;;;;0.00;0.00;;;;;;;;;;5079018;28;20028;-89
2023/05/23 20:00:03;;;;;;;0.00;0.00;;;;;;;;;;5062684;28;20545;-89
2023/05/23 20:02:43;;;;;;;0.00;0.00;;;;;;;;;;5059309;28;20028;-89
2023/05/23 20:05:09;;;;;;;;;;;;;;;;;;5062936;28;20028;-90
2023/05/23 20:08:01;;;;;;;0.00;0.00;;;;;;;;;;5094192;28;19918;-89
2023/05/23 20:10:32;;;;;;;0.00;0.00;;;;;;;;;;5053782;28;20044;-89
2023/05/23 20:12:58;;;;;;;0.00;0.00;;;;;;;;;;5092577;28;20479;-90
2023/05/23 20:15:26;;;;;;;0.00;0.00;;;;;;;;;;5090526;28;20054;-88
2023/05/23 20:17:52;;;;;;;0.00;0.00;;;;;;;;;;5055676;28;20032;-88
2023/05/23 20:20:17;;;;;;;0.03;0.03;;;;;;;;;;5061160;28;20016;-89